Time;durP1;ratioP1;P1;durP2;ratioP2;P2;SDS_P1;SDS_P2;PMS_P1;PMS_P2;Temp;Humidity;BMP_temperature;BMP_pressure;BME280_temperature;BME280_humidity;BME280_pressure;Samples;Min_cycle;Max_cycle;Signal;HPM_P1;HPM_P2
2022/01/26 00:00:56;;;;;;;8.08;5.55;;;;;;;4.09;88.99;101955.63;1692030;84;21374;-74
2022/01/26 00:06:32;;;;;;;7.37;5.00;;;;;;;4.09;88.93;101951.78;1673380;84;20946;-74
2022/01/26 00:09:17;;;;;;;7.75;4.58;;;;;;;4.08;88.96;101944.92;1673041;84;20947;-74
2022/01/26 00:12:02;;;;;;;6.70;4.10;;;;;;;4.08;88.96;101946.20;1677810;84;20983;-74
2022/01/26 00:14:47;;;;;;;6.37;4.67;;;;;;;4.07;88.92;101945.75;1697656;84;20931;-74
2022/01/26 00:17:31;;;;;;;6.20;4.03;;;;;;;4.07;88.91;101944.47;1687561;84;20963;-74
2022/01/26 00:20:27;;;;;;;4.92;4.17;;;;;;;4.06;88.91;101942.73;1666523;84;21483;-74
2022/01/26 00:41:03;;;;;;;4.92;3.15;;;;;;;3.98;88.86;101938.23;1684854;84;20931;-74
2022/01/26 00:43:47;;;;;;;;;;;;;;;3.98;88.87;101935.67;1701029;84;21395;-74
2022/01/26 00:46:31;;;;;;;7.70;3.45;;;;;;;3.96;88.84;101937.31;1681007;84;20166;-74
2022/01/26 00:49:17;;;;;;;8.83;3.20;;;;;;;3.93;88.83;101934.66;1671996;84;20967;-74
2022/01/26 00:52:05;;;;;;;5.00;3.10;;;;;;;3.93;88.83;101928.67;1670437;84;20992;-74
2022/01/26 00:54:48;;;;;;;6.70;3.33;;;;;;;3.90;88.81;101933.27;1671256;84;21464;-74
2022/01/26 00:57:33;;;;;;;5.53;3.52;;;;;;;3.89;88.81;101931.95;1670609;84;21399;-74
2022/01/26 01:00:25;;;;;;;6.35;3.12;;;;;;;3.87;88.83;101928.06;1666043;85;21599;-74
2022/01/26 01:03:10;;;;;;;4.50;2.67;;;;;;;3.85;88.81;101928.83;1670492;85;20983;-74
2022/01/26 01:06:00;;;;;;;6.10;2.72;;;;;;;3.83;88.78;101925.34;1681658;84;20919;-73
2022/01/26 01:08:41;;;;;;;4.85;2.67;;;;;;;3.80;88.75;101929.09;1670478;85;20994;-73
2022/01/26 01:11:26;;;;;;;5.60;2.70;;;;;;;3.79;88.80;101921.82;1674843;84;20931;-74
2022/01/26 01:14:11;;;;;;;9.80;2.90;;;;;;;3.76;88.79;101920.44;1691447;84;21380;-73
2022/01/26 01:17:00;;;;;;;5.50;2.50;;;;;;;3.78;88.85;101925.61;1698464;84;21205;-73
2022/01/26 01:19:56;;;;;;;;;;;;;;;3.78;88.81;101921.36;1701324;84;21434;-73
2022/01/26 01:31:13;;;;;;;4.08;2.47;;;;;;;3.76;88.83;101920.44;1691428;84;20956;-73
2022/01/26 01:33:52;;;;;;;8.23;2.83;;;;;;;3.76;88.82;101920.86;1673100;84;20947;-73
2022/01/26 01:36:39;;;;;;;5.90;3.55;;;;;;;3.75;88.82;101916.14;1696633;84;20943;-73
2022/01/26 01:39:23;;;;;;;5.20;3.42;;;;;;;3.74;88.80;101913.12;1698340;84;21388;-73
2022/01/26 01:42:09;;;;;;;4.90;3.20;;;;;;;3.73;88.82;101915.23;1689652;84;20939;-73
2022/01/26 01:44:53;;;;;;;5.67;3.33;;;;;;;3.73;88.83;101914.36;1690756;84;21420;-74
2022/01/26 01:47:38;;;;;;;6.80;3.83;;;;;;;3.71;88.79;101912.16;1700507;84;20931;-73
2022/01/26 01:50:22;;;;;;;7.22;5.15;;;;;;;3.69;88.78;101909.55;1698172;84;20935;-73
2022/01/26 01:53:06;;;;;;;6.87;4.40;;;;;;;3.65;88.73;101906.44;1699777;84;20939;-73
2022/01/26 01:55:51;;;;;;;6.35;3.77;;;;;;;3.62;88.73;101902.53;1681571;84;20947;-74
2022/01/26 01:58:37;;;;;;;8.73;4.37;;;;;;;3.60;88.75;101900.33;1670425;85;20983;-74
2022/01/26 02:01:21;;;;;;;7.60;5.78;;;;;;;3.56;88.73;101900.64;1683430;84;20935;-74
2022/01/26 02:04:07;;;;;;;8.70;5.85;;;;;;;3.54;88.75;101898.84;1700765;84;20976;-74
2022/01/26 02:06:51;;;;;;;8.18;5.20;;;;;;;3.50;88.73;101892.77;1684452;84;21420;-74
2022/01/26 02:09:36;;;;;;;8.95;5.30;;;;;;;3.45;88.75;101893.42;1672327;85;21514;-74
2022/01/26 02:12:23;;;;;;;10.82;5.55;;;;;;;3.43;88.74;101894.66;1684558;84;20927;-74
2022/01/26 02:15:14;;;;;;;;;;;;;;;3.38;88.76;101889.80;1687798;84;20991;-74
2022/01/26 03:05:34;;;;;;;9.55;6.28;;;;;;;2.91;88.88;101866.46;1699878;84;20939;-73
2022/01/26 03:08:15;;;;;;;8.03;5.85;;;;;;;2.92;88.89;101861.81;1690873;84;20923;-73
2022/01/26 03:11:07;;;;;;;8.93;5.72;;;;;;;2.93;88.93;101874.64;1662707;85;21819;-73
2022/01/26 03:13:53;;;;;;;8.55;6.45;;;;;;;2.97;88.94;101873.06;1673110;84;21390;-74
2022/01/26 03:16:39;;;;;;;;;;;;;;;3.00;88.97;101871.89;1678289;84;21448;-73
2022/01/26 03:19:24;;;;;;;6.58;5.90;;;;;;;3.05;89.06;101868.22;1701567;84;20131;-73
2022/01/26 03:34:13;;;;;;;7.62;5.53;;;;;;;3.24;89.01;101862.48;1681958;84;20942;-73
2022/01/26 03:37:00;;;;;;;7.33;5.50;;;;;;;3.28;89.03;101856.66;1673101;85;21419;-73
2022/01/26 03:39:44;;;;;;;12.80;6.25;;;;;;;3.33;89.02;101854.26;1673376;85;21382;-73
2022/01/26 03:42:28;;;;;;;8.65;5.67;;;;;;;3.38;89.04;101857.83;1683570;84;20951;-73
2022/01/26 03:45:13;;;;;;;8.73;5.87;;;;;;;3.42;89.02;101854.97;1672194;84;20947;-73
2022/01/26 03:47:57;;;;;;;8.88;6.37;;;;;;;3.44;89.02;101858.45;1683651;84;21593;-73
2022/01/26 03:50:42;;;;;;;7.53;6.70;;;;;;;3.47;89.02;101858.14;1670120;85;20943;-73
2022/01/26 03:53:27;;;;;;;7.67;5.45;;;;;;;3.52;89.02;101863.00;1670414;84;20955;-73
2022/01/26 03:56:11;;;;;;;7.40;6.28;;;;;;;3.54;89.02;101865.19;1671650;84;21566;-73
2022/01/26 03:58:55;;;;;;;8.75;6.50;;;;;;;3.56;89.05;101861.00;1670582;85;21416;-73
2022/01/26 04:01:40;;;;;;;9.40;6.03;;;;;;;3.59;89.02;101858.54;1679208;84;21416;-73
2022/01/26 04:04:25;;;;;;;6.12;5.17;;;;;;;3.62;89.00;101859.05;1670220;85;21451;-73
2022/01/26 04:07:09;;;;;;;8.30;6.20;;;;;;;3.63;89.02;101856.54;1693330;84;21388;-73
2022/01/26 04:10:01;;;;;;;7.22;5.53;;;;;;;3.65;89.01;101851.44;1698617;84;20959;-74
2022/01/26 04:12:40;;;;;;;7.80;5.40;;;;;;;3.69;89.01;101851.13;1698538;84;20991;-74
2022/01/26 04:15:29;;;;;;;7.12;6.35;;;;;;;3.70;88.98;101849.03;1697822;84;21015;-74
2022/01/26 04:18:15;;;;;;;5.85;5.17;;;;;;;3.71;89.00;101845.66;1698700;83;20920;-74
2022/01/26 04:21:02;;;;;;;7.20;5.50;;;;;;;3.73;89.02;101844.88;1698718;84;20946;-74
2022/01/26 04:24:12;;;;;;;6.85;6.15;;;;;;;3.74;89.02;101841.50;1698803;84;20935;-74
2022/01/26 04:26:36;;;;;;;;;;;;;;;3.75;89.03;101833.42;1679714;84;20987;-74
2022/01/26 04:29:25;;;;;;;9.85;7.42;;;;;;;3.77;89.09;101832.64;1691293;84;20139;-74
2022/01/26 04:32:05;;;;;;;;;;;;;;;3.78;89.09;101829.68;1701133;84;20991;-74
2022/01/26 04:34:49;;;;;;;8.30;6.80;;;;;;;3.81;89.18;101829.36;1684677;84;20599;-74
2022/01/26 04:40:35;;;;;;;10.35;7.60;;;;;;;3.87;89.23;101824.84;1670650;85;20951;-74
2022/01/26 04:43:20;;;;;;;;;;;;;;;3.90;89.25;101823.66;1687832;84;20979;-74
2022/01/26 04:46:01;;;;;;;8.65;7.75;;;;;;;3.94;89.31;101819.09;1672587;84;20145;-74
2022/01/26 04:48:45;;;;;;;9.58;7.37;;;;;;;3.96;89.28;101819.59;1672794;84;21410;-74
2022/01/26 04:51:30;;;;;;;10.32;7.37;;;;;;;3.99;89.29;101816.27;1672735;84;20939;-74
2022/01/26 04:54:15;;;;;;;7.43;6.63;;;;;;;4.03;89.30;101813.39;1673163;85;20979;-74
2022/01/26 04:57:00;;;;;;;10.15;6.72;;;;;;;4.05;89.31;101800.22;1673176;84;20995;-74
2022/01/26 04:59:44;;;;;;;6.17;5.28;;;;;;;4.08;89.32;101807.58;1674136;84;20963;-74
2022/01/26 05:02:28;;;;;;;6.35;5.08;;;;;;;4.11;89.32;101802.97;1672453;85;21340;-73
2022/01/26 05:05:13;;;;;;;6.08;5.45;;;;;;;4.15;89.31;101804.80;1684966;84;21393;-74
2022/01/26 05:07:57;;;;;;;5.28;4.78;;;;;;;4.16;89.33;101803.53;1672357;84;20983;-74
2022/01/26 05:10:43;;;;;;;4.62;4.22;;;;;;;4.19;89.32;101796.34;1672320;85;21590;-73
2022/01/26 05:13:28;;;;;;;5.20;4.60;;;;;;;4.20;89.34;101792.55;1697082;84;20919;-73
2022/01/26 05:16:12;;;;;;;12.63;7.35;;;;;;;4.24;89.36;101792.23;1672325;84;21431;-73
2022/01/26 05:18:57;;;;;;;9.18;7.00;;;;;;;4.26;89.36;101785.05;1672344;84;21387;-73
2022/01/26 05:21:42;;;;;;;17.15;11.30;;;;;;;4.29;89.37;101795.79;1675288;84;21341;-73
2022/01/26 05:24:26;;;;;;;10.13;5.72;;;;;;;4.30;89.34;101790.71;1672625;84;20966;-73
2022/01/26 05:27:11;;;;;;;20.15;8.88;;;;;;;4.33;89.38;101786.09;1672534;84;20939;-73
2022/01/26 05:29:55;;;;;;;13.40;6.90;;;;;;;4.36;89.36;101782.34;1690399;84;20924;-73
2022/01/26 05:32:40;;;;;;;8.08;4.65;;;;;;;4.37;89.36;101784.48;1700792;84;20998;-74
2022/01/26 05:35:24;;;;;;;7.00;4.70;;;;;;;4.40;89.35;101788.41;1700580;84;21424;-74
2022/01/26 05:38:09;;;;;;;9.90;5.72;;;;;;;4.40;89.32;101778.17;1690468;84;21377;-74
2022/01/26 05:40:55;;;;;;;16.65;6.70;;;;;;;4.40;89.34;101768.80;1674716;84;20939;-74
2022/01/26 05:43:39;;;;;;;13.93;6.85;;;;;;;4.43;89.34;101775.69;1700237;82;20987;-74
2022/01/26 05:46:32;;;;;;;9.05;5.22;;;;;;;4.44;89.38;101772.30;1701149;84;21415;-74
2022/01/26 05:49:10;;;;;;;;;;;;;;;4.46;89.35;101768.97;1704089;83;21006;-74
2022/01/26 05:51:55;;;;;;;5.55;3.85;;;;;;;4.48;89.40;101772.44;1700851;84;20454;-74
2022/01/26 05:54:39;;;;;;;12.55;6.67;;;;;;;4.49;89.36;101770.73;1683503;83;20955;-74
2022/01/26 05:57:23;;;;;;;12.47;6.28;;;;;;;4.49;89.40;101761.36;1698588;84;21436;-74
2022/01/26 06:00:09;;;;;;;10.70;5.60;;;;;;;4.52;89.40;101765.28;1676869;84;20943;-74
2022/01/26 06:02:54;;;;;;;9.05;4.70;;;;;;;4.53;89.41;101767.02;1701489;82;21423;-74
2022/01/26 06:05:38;;;;;;;9.18;5.25;;;;;;;4.54;89.37;101762.77;1693864;84;20915;-74
2022/01/26 06:08:24;;;;;;;8.13;4.58;;;;;;;4.56;89.42;101770.08;1698030;84;20951;-74
2022/01/26 06:11:08;;;;;;;7.85;4.83;;;;;;;4.57;89.42;101768.84;1683989;84;20982;-74
2022/01/26 06:13:55;;;;;;;5.62;3.77;;;;;;;4.58;89.41;101766.73;1673115;85;20994;-74
2022/01/26 06:16:39;;;;;;;7.58;5.50;;;;;;;4.58;89.39;101769.71;1698485;84;20935;-74
2022/01/26 06:19:24;;;;;;;5.40;3.92;;;;;;;4.60;89.40;101775.74;1701474;84;21003;-74
2022/01/26 06:22:08;;;;;;;4.85;3.55;;;;;;;4.59;89.39;101769.75;1693665;84;20939;-74
2022/01/26 06:24:54;;;;;;;6.35;3.77;;;;;;;4.61;89.43;101768.52;1687340;84;20939;-74
2022/01/26 06:27:39;;;;;;;4.10;3.45;;;;;;;4.62;89.42;101765.13;1698824;83;20990;-74
2022/01/26 06:30:24;;;;;;;3.87;3.17;;;;;;;4.62;89.37;101763.84;1682878;84;20987;-74
2022/01/26 06:33:09;;;;;;;4.58;3.90;;;;;;;4.62;89.41;101768.55;1679939;84;21019;-74
2022/01/26 06:35:56;;;;;;;5.15;3.52;;;;;;;4.61;89.42;101764.25;1689684;82;20959;-74
2022/01/26 06:38:46;;;;;;;;;;;;;;;4.61;89.39;101757.85;1715687;82;20919;-74
2022/01/26 06:41:30;;;;;;;5.15;4.00;;;;;;;4.63;89.45;101757.89;1674145;84;20119;-74
2022/01/26 06:44:25;;;;;;;3.33;2.80;;;;;;;4.63;89.38;101766.86;1700376;83;20920;-74
2022/01/26 06:47:30;;;;;;;4.65;3.45;;;;;;;4.62;89.38;101764.71;1698489;83;21037;-74
2022/01/26 06:49:51;;;;;;;;;;;;;;;4.61;89.43;101762.11;1681773;84;20986;-73
2022/01/26 06:52:35;;;;;;;2.90;2.20;;;;;;;4.61;89.47;101760.41;1693870;84;20135;-73
2022/01/26 06:55:21;;;;;;;3.90;2.70;;;;;;;4.63;89.40;101763.02;1683637;82;21412;-73
2022/01/26 06:58:06;;;;;;;2.37;2.15;;;;;;;4.60;89.39;101759.96;1685492;84;20974;-73
2022/01/26 07:00:50;;;;;;;2.90;2.60;;;;;;;4.59;89.40;101764.63;1687268;84;21396;-73
2022/01/26 07:03:35;;;;;;;3.05;2.83;;;;;;;4.59;89.39;101763.34;1700892;84;20924;-73
2022/01/26 07:06:19;;;;;;;3.22;2.50;;;;;;;4.60;89.41;101761.66;1691201;83;21579;-73
2022/01/26 07:09:04;;;;;;;3.83;3.00;;;;;;;4.59;89.43;101768.47;1700173;84;20974;-73
2022/01/26 07:11:48;;;;;;;3.27;2.67;;;;;;;4.61;89.50;101763.39;1698830;84;21458;-73
2022/01/26 07:23:23;;;;;;;3.20;2.87;;;;;;;4.61;89.40;101765.95;1676541;84;20963;-74
2022/01/26 07:26:08;;;;;;;5.28;2.70;;;;;;;4.62;89.44;101763.43;1690685;84;20951;-73
2022/01/26 07:28:53;;;;;;;3.25;2.80;;;;;;;4.63;89.43;101765.16;1702831;82;20966;-73
2022/01/26 07:31:42;;;;;;;2.80;2.60;;;;;;;4.63;89.43;101761.33;1696788;82;20947;-73
2022/01/26 07:34:25;;;;;;;4.42;3.35;;;;;;;4.63;89.40;101763.88;1693017;83;21389;-73
2022/01/26 07:37:13;;;;;;;3.60;3.30;;;;;;;4.64;89.44;101766.03;1714306;83;21394;-73
2022/01/26 07:40:09;;;;;;;;;;;;;;;4.64;89.46;101766.90;1690777;83;21577;-73
2022/01/26 07:42:53;;;;;;;4.00;3.60;;;;;;;4.65;89.46;101763.52;1695896;84;20159;-74
2022/01/26 07:45:38;;;;;;;3.87;3.25;;;;;;;4.64;89.43;101763.47;1673814;84;22042;-74
2022/01/26 07:48:23;;;;;;;3.67;3.30;;;;;;;4.64;89.48;101763.47;1698139;84;20935;-74
2022/01/26 07:51:08;;;;;;;3.55;3.25;;;;;;;4.65;89.46;101769.91;1677599;84;20919;-74
2022/01/26 07:53:52;;;;;;;2.80;2.60;;;;;;;4.65;89.49;101767.36;1690141;83;20995;-73
2022/01/26 07:56:36;;;;;;;3.27;2.90;;;;;;;4.66;89.52;101768.22;1685631;84;21495;-74
2022/01/26 07:59:21;;;;;;;3.17;2.85;;;;;;;4.69;89.48;101772.53;1678580;84;20952;-74
2022/01/26 08:02:05;;;;;;;2.27;2.08;;;;;;;4.69;89.53;101769.97;1689370;84;21018;-74
2022/01/26 08:04:49;;;;;;;2.10;1.90;;;;;;;4.70;89.48;101772.98;1697639;83;20995;-73
2022/01/26 08:07:34;;;;;;;2.80;2.20;;;;;;;4.70;89.49;101767.86;1693153;84;21634;-73
2022/01/26 08:10:19;;;;;;;2.20;2.00;;;;;;;4.70;89.49;101772.98;1693076;84;20927;-73
2022/01/26 08:13:04;;;;;;;2.40;2.20;;;;;;;4.68;89.45;101769.09;1691577;84;21436;-73
2022/01/26 08:15:49;;;;;;;1.70;1.60;;;;;;;4.69;89.52;101773.39;1648612;85;21452;-73
2022/01/26 08:18:33;;;;;;;2.17;1.98;;;;;;;4.70;89.49;101779.39;1675130;83;20984;-73
2022/01/26 08:21:19;;;;;;;1.52;1.42;;;;;;;4.68;89.47;101775.95;1691984;84;20959;-73
2022/01/26 08:24:12;;;;;;;1.70;1.60;;;;;;;4.69;89.48;101778.93;1697241;83;20924;-73
2022/01/26 08:26:50;;;;;;;2.95;1.62;;;;;;;4.69;89.51;101786.20;1687497;84;20931;-73
2022/01/26 08:29:42;;;;;;;2.42;1.82;;;;;;;4.71;89.53;101787.11;1692237;83;20935;-73
2022/01/26 08:32:24;;;;;;;2.62;1.70;;;;;;;4.72;89.56;101787.56;1676785;84;20972;-73
2022/01/26 08:35:10;;;;;;;2.00;1.60;;;;;;;4.73;89.46;101783.31;1690354;83;20939;-73
2022/01/26 08:37:54;;;;;;;1.70;1.60;;;;;;;4.73;89.48;101776.49;1691212;84;21519;-74
2022/01/26 08:40:39;;;;;;;2.80;1.60;;;;;;;4.73;89.46;101771.78;1697761;84;20953;-74
2022/01/26 08:43:23;;;;;;;1.57;1.47;;;;;;;4.73;89.44;101779.47;1697117;83;20959;-74
2022/01/26 08:46:08;;;;;;;1.75;1.65;;;;;;;4.73;89.43;101770.50;1696386;83;21006;-73
2022/01/26 08:48:52;;;;;;;1.75;1.50;;;;;;;4.73;89.42;101776.91;1695128;84;21358;-74
2022/01/26 08:51:37;;;;;;;1.98;1.77;;;;;;;4.73;89.44;101782.90;1699681;84;20951;-74
2022/01/26 08:54:22;;;;;;;3.87;2.20;;;;;;;4.72;89.45;101780.30;1696206;82;21286;-74
2022/01/26 08:57:07;;;;;;;2.58;2.00;;;;;;;4.72;89.46;101777.31;1700448;83;21319;-73
2022/01/26 08:59:52;;;;;;;1.70;1.60;;;;;;;4.71;89.46;101769.17;1693972;84;21466;-74
2022/01/26 09:02:36;;;;;;;1.77;1.65;;;;;;;4.72;89.43;101778.59;1691198;84;20946;-74
2022/01/26 09:05:21;;;;;;;2.58;2.15;;;;;;;4.72;89.47;101786.28;1695727;84;21342;-74
2022/01/26 09:08:05;;;;;;;2.12;1.62;;;;;;;4.74;89.48;101776.08;1699430;84;20951;-74
2022/01/26 09:10:56;;;;;;;3.60;2.50;;;;;;;4.74;89.47;101774.38;1699237;83;20971;-74
2022/01/26 09:13:36;;;;;;;3.92;2.72;;;;;;;4.76;89.55;101777.85;1698663;84;20951;-73
2022/01/26 09:16:23;;;;;;;3.20;2.50;;;;;;;4.80;89.58;101779.67;1697540;81;21019;-73
2022/01/26 09:19:24;;;;;;;;;;;;;;;4.83;89.56;101777.19;1701425;82;21046;-74
2022/01/26 09:22:07;;;;;;;4.67;2.92;;;;;;;4.84;89.57;101773.80;1699390;82;20466;-73
2022/01/26 09:24:53;;;;;;;3.62;2.42;;;;;;;4.85;89.52;101775.53;1696637;83;20987;-73
2022/01/26 09:27:38;;;;;;;1.80;1.67;;;;;;;4.84;89.53;101776.77;1698644;82;21408;-73
2022/01/26 09:30:23;;;;;;;1.90;1.60;;;;;;;4.83;89.45;101777.60;1697779;82;20975;-73
2022/01/26 09:33:07;;;;;;;1.45;1.35;;;;;;;4.83;89.49;101772.48;1698438;83;20937;-73
2022/01/26 09:35:51;;;;;;;2.17;1.50;;;;;;;4.85;89.51;101772.97;1699399;84;20988;-73
2022/01/26 09:38:38;;;;;;;1.22;1.12;;;;;;;4.86;89.48;101773.42;1696992;84;21300;-73
2022/01/26 09:41:23;;;;;;;1.35;1.25;;;;;;;4.88;89.49;101774.75;1698490;82;20975;-72
2022/01/26 09:44:08;;;;;;;1.85;1.55;;;;;;;4.88;89.50;101777.31;1671616;82;20979;-72
2022/01/26 09:46:53;;;;;;;2.12;1.75;;;;;;;4.86;89.46;101776.41;1696410;83;21139;-71
2022/01/26 09:49:38;;;;;;;2.25;1.87;;;;;;;4.86;89.48;101770.86;1695764;83;21504;-72
2022/01/26 09:52:35;;;;;;;1.98;1.77;;;;;;;4.87;89.53;101773.02;1696211;84;21011;-72
2022/01/26 09:55:16;;;;;;;3.05;2.75;;;;;;;4.85;89.45;101766.56;1694980;84;21074;-71
2022/01/26 09:58:02;;;;;;;1.80;1.57;;;;;;;4.85;89.50;101770.82;1687604;84;21120;-71
2022/01/26 10:00:49;;;;;;;1.87;1.77;;;;;;;4.82;89.46;101770.33;1667114;83;21173;-71
2022/01/26 10:03:35;;;;;;;;;;;;;;;4.80;89.45;101774.55;1695507;84;20929;-72
2022/01/26 10:06:26;;;;;;;1.47;1.32;;;;;;;4.78;89.43;101771.48;1696973;84;20474;-72
2022/01/26 10:15:34;;;;;;;1.80;1.70;;;;;;;4.73;89.47;101758.97;1680888;84;21795;-71
2022/01/26 10:18:21;;;;;;;1.77;1.65;;;;;;;4.71;89.45;101771.74;1568217;84;9999670;-70
2022/01/26 10:21:09;;;;;;;2.02;1.92;;;;;;;4.70;89.44;101769.14;1693653;84;20921;-71
2022/01/26 10:23:54;;;;;;;1.90;1.80;;;;;;;4.67;89.45;101770.38;1687469;84;20975;-71
2022/01/26 10:26:39;;;;;;;2.17;2.05;;;;;;;4.65;89.50;101760.95;1676320;84;21054;-71
2022/01/26 10:29:24;;;;;;;2.33;1.98;;;;;;;4.63;89.45;101762.60;1689168;83;21076;-73
2022/01/26 10:32:13;;;;;;;2.00;1.90;;;;;;;4.61;89.48;101756.57;1695941;82;20979;-73
2022/01/26 10:35:01;;;;;;;2.87;2.15;;;;;;;4.63;89.53;101757.48;1686121;84;20929;-73
2022/01/26 10:37:55;;;;;;;1.85;1.70;;;;;;;4.66;89.55;101751.57;1696355;83;21487;-73
2022/01/26 10:40:40;;;;;;;2.00;1.90;;;;;;;4.68;89.53;101745.20;1697728;84;20991;-73
2022/01/26 10:43:24;;;;;;;1.80;1.70;;;;;;;4.72;89.57;101744.42;1695411;83;21586;-73
2022/01/26 10:46:09;;;;;;;2.55;2.00;;;;;;;4.74;89.55;101742.77;1694638;83;20960;-72
2022/01/26 10:52:01;;;;;;;1.72;1.62;;;;;;;4.76;89.50;101739.84;1688679;84;20986;-71
2022/01/26 10:54:42;;;;;;;;;;;;;;;4.77;89.47;101742.85;1700794;82;21558;-72
2022/01/26 10:57:28;;;;;;;4.45;2.67;;;;;;;4.75;89.45;101736.41;1691464;84;20159;-72
2022/01/26 11:00:14;;;;;;;2.60;2.40;;;;;;;4.72;89.36;101732.90;1700197;83;21562;-73
2022/01/26 11:02:59;;;;;;;3.00;2.27;;;;;;;4.68;89.40;101729.39;1696833;83;20935;-73
2022/01/26 11:05:43;;;;;;;2.42;2.22;;;;;;;4.64;89.39;101726.33;1698304;83;20955;-73
2022/01/26 11:08:30;;;;;;;3.05;2.35;;;;;;;4.63;89.42;101731.86;1698192;83;20973;-73
2022/01/26 11:11:22;;;;;;;;;;;;;;;4.60;89.39;101734.76;1702976;83;20971;-71
2022/01/26 11:14:22;;;;;;;2.10;1.90;;;;;;;4.59;89.40;101741.58;1695153;82;20131;-71
2022/01/26 11:17:08;;;;;;;2.25;2.05;;;;;;;4.59;89.40;101741.98;1676353;84;20978;-72
2022/01/26 11:19:55;;;;;;;1.82;1.70;;;;;;;4.62;89.51;101732.69;1680718;84;20959;-71
2022/01/26 11:22:55;;;;;;;1.72;1.62;;;;;;;4.63;89.45;101725.46;1691119;83;21604;-71
2022/01/26 11:25:47;;;;;;;1.75;1.65;;;;;;;4.63;89.43;101726.73;1690198;83;21558;-71
2022/01/26 11:28:32;;;;;;;1.40;1.30;;;;;;;4.67;89.47;101716.58;1700629;82;20978;-72
2022/01/26 11:31:18;;;;;;;2.37;1.77;;;;;;;4.65;89.39;101722.94;1694784;84;20967;-71
2022/01/26 11:34:05;;;;;;;1.95;1.47;;;;;;;4.65;89.38;101718.68;1691759;82;21028;-73
2022/01/26 11:36:49;;;;;;;2.08;1.67;;;;;;;4.64;89.43;101725.91;1684150;82;21454;-72
2022/01/26 11:45:38;;;;;;;1.70;1.60;;;;;;;4.54;89.37;101729.06;1693403;84;21454;-71
2022/01/26 11:48:25;;;;;;;1.50;1.37;;;;;;;4.53;89.36;101735.42;1683227;83;21014;-72
2022/01/26 11:51:10;;;;;;;2.12;1.72;;;;;;;4.51;89.39;101737.08;1669494;84;21070;-72
2022/01/26 11:53:54;;;;;;;1.82;1.72;;;;;;;4.49;89.41;101731.91;1693011;83;21059;-72
2022/01/26 11:56:40;;;;;;;2.12;1.92;;;;;;;4.45;89.32;101734.34;1688486;83;21086;-73
2022/01/26 11:59:27;;;;;;;2.42;2.22;;;;;;;4.44;89.40;101734.77;1693688;83;21627;-73
2022/01/26 12:02:34;;;;;;;2.30;2.10;;;;;;;4.41;89.38;101724.44;1695488;83;21113;-73
2022/01/26 12:05:18;;;;;;;2.05;1.82;;;;;;;4.42;89.42;101719.77;1684703;83;21094;-74
2022/01/26 12:08:01;;;;;;;2.42;2.00;;;;;;;4.41;89.43;101721.00;1697471;83;20934;-72
2022/01/26 12:10:47;;;;;;;2.60;2.02;;;;;;;4.39;89.43;101721.37;1691136;83;21310;-73
2022/01/26 12:13:33;;;;;;;1.77;1.67;;;;;;;4.37;89.40;101718.78;1694770;83;21398;-73
2022/01/26 12:16:22;;;;;;;;;;;;;;;4.33;89.38;101716.95;1701421;83;21047;-73
2022/01/26 12:34:52;;;;;;;1.80;1.60;;;;;;;4.37;89.57;101704.70;1695512;82;21439;-73
2022/01/26 12:37:54;;;;;;;1.70;1.60;;;;;;;4.38;89.52;101698.75;1692432;84;20927;-73
2022/01/26 12:43:49;;;;;;;1.80;1.70;;;;;;;4.39;89.48;101691.52;1695778;83;21515;-73
2022/01/26 12:46:36;;;;;;;1.85;1.75;;;;;;;4.41;89.52;101687.72;1696996;84;20948;-73
2022/01/26 12:49:20;;;;;;;2.12;2.00;;;;;;;4.41;89.48;101687.72;1695769;83;20975;-73
2022/01/26 12:52:09;;;;;;;2.52;1.95;;;;;;;4.41;89.49;101683.47;1678056;83;21082;-73
2022/01/26 12:54:54;;;;;;;1.85;1.67;;;;;;;4.39;89.46;101680.00;1687497;83;21054;-73
2022/01/26 12:57:46;;;;;;;2.02;1.70;;;;;;;4.39;89.46;101675.29;1686538;84;21125;-73
2022/01/26 13:00:41;;;;;;;1.40;1.30;;;;;;;4.38;89.45;101678.67;1685478;83;21040;-73
2022/01/26 13:03:35;;;;;;;1.72;1.62;;;;;;;4.38;89.43;101673.55;1681237;84;21459;-74
2022/01/26 13:06:28;;;;;;;1.70;1.60;;;;;;;4.34;89.39;101661.09;1675797;84;21086;-73
2022/01/26 13:09:29;;;;;;;1.70;1.55;;;;;;;4.35;89.46;101660.26;1655055;82;20991;-74
2022/01/26 13:12:15;;;;;;;1.90;1.80;;;;;;;4.36;89.48;101654.31;1693813;83;21455;-73
2022/01/26 13:15:18;;;;;;;2.12;1.98;;;;;;;4.37;89.47;101661.58;1689461;83;21446;-73
2022/01/26 13:18:05;;;;;;;2.35;2.15;;;;;;;4.26;89.45;101648.08;1669381;83;21110;-74
2022/01/26 13:23:54;;;;;;;2.55;2.35;;;;;;;4.35;89.35;101665.79;1672256;83;21129;-73
2022/01/26 13:26:39;;;;;;;2.70;2.22;;;;;;;4.27;89.31;101666.45;1695287;83;21454;-74
2022/01/26 13:29:41;;;;;;;;;;;;;;;4.24;89.34;101658.70;1700707;83;20987;-75
2022/01/26 13:35:18;;;;;;;3.02;2.25;;;;;;;4.21;89.41;101656.47;1690784;83;21657;-74
2022/01/26 13:42:06;;;;;;;2.22;2.02;;;;;;;4.16;89.44;101652.50;1696653;84;20987;-74
2022/01/26 13:55:46;;;;;;;3.65;2.80;;;;;;;4.10;89.42;101634.87;1699536;84;21432;-73
2022/01/26 14:01:15;;;;;;;3.83;2.75;;;;;;;3.99;89.31;101630.33;1701212;82;20978;-73
2022/01/26 14:03:54;;;;;;;4.35;3.52;;;;;;;3.97;89.34;101626.86;1699874;82;20983;-73
2022/01/26 14:06:36;;;;;;;5.22;4.12;;;;;;;3.97;89.39;101614.06;1697071;82;21859;-73
2022/01/26 14:09:21;;;;;;;5.12;3.85;;;;;;;3.96;89.38;101601.23;1700646;82;21415;-73
2022/01/26 14:12:11;;;;;;;5.53;4.30;;;;;;;3.94;89.37;101607.59;1651549;83;21030;-73
2022/01/26 14:14:57;;;;;;;5.50;4.30;;;;;;;3.95;89.39;101604.20;1696581;83;21357;-73
2022/01/26 14:20:45;;;;;;;6.45;4.75;;;;;;;3.88;89.27;101598.88;1683815;84;20927;-73
2022/01/26 14:23:55;;;;;;;8.48;5.30;;;;;;;3.84;89.29;101595.37;1697437;84;21385;-74
2022/01/26 14:26:23;;;;;;;5.22;4.60;;;;;;;3.81;89.31;101605.52;1698801;82;20994;-74
2022/01/26 14:29:13;;;;;;;;;;;;;;;3.78;89.29;101600.73;1702561;82;20979;-73
2022/01/26 14:40:57;;;;;;;6.45;4.25;;;;;;;3.64;89.30;101592.26;1697851;82;20929;-71
2022/01/26 14:55:51;;;;;;;5.72;4.45;;;;;;;3.52;89.35;101592.36;1700062;84;20943;-73
2022/01/26 15:20:12;;;;;;;4.85;4.15;;;;;;;3.37;89.21;101573.61;1700246;84;20963;-72
2022/01/26 15:49:28;;;;;;;5.05;3.60;;;;;;;3.09;89.17;101570.70;1697364;82;22025;-73
2022/01/26 16:12:55;;;;;;;5.90;3.58;;;;;;;2.89;89.16;101576.89;1679974;82;20947;-76
2022/01/26 18:04:08;;;;;;;8.73;4.92;;;;;;;2.41;88.96;101506.05;1694633;83;21086;-73
2022/01/26 18:15:54;;;;;;;8.35;5.05;;;;;;;2.32;88.89;101506.21;1694834;83;21590;-74
2022/01/26 18:40:01;;;;;;;6.65;5.17;;;;;;;2.24;88.79;101491.48;1679638;83;21413;-73
2022/01/26 18:51:26;;;;;;;8.38;5.92;;;;;;;2.20;88.78;101503.27;1689798;83;20983;-73
2022/01/26 18:54:12;;;;;;;6.47;5.25;;;;;;;2.18;88.79;101496.38;1683228;83;20982;-74
2022/01/26 18:57:00;;;;;;;7.95;5.20;;;;;;;2.17;88.80;101499.34;1690047;84;20955;-74
2022/01/26 18:59:46;;;;;;;9.20;5.65;;;;;;;2.18;88.82;101510.41;1690773;84;20933;-74
2022/01/26 19:02:30;;;;;;;8.45;6.12;;;;;;;2.18;88.85;101507.86;1687173;84;21590;-73
2022/01/26 19:05:16;;;;;;;7.60;5.58;;;;;;;2.17;88.78;101525.27;1666192;84;20943;-73
2022/01/26 19:08:00;;;;;;;10.60;6.97;;;;;;;2.17;88.79;101518.89;1687099;84;20923;-74
2022/01/26 19:10:45;;;;;;;7.08;5.47;;;;;;;2.16;88.77;101514.19;1700980;81;21404;-72
2022/01/26 19:13:31;;;;;;;8.33;5.97;;;;;;;2.14;88.75;101505.63;1689497;82;21010;-73
2022/01/26 19:16:32;;;;;;;11.05;6.83;;;;;;;2.13;88.79;101493.68;1699736;82;20979;-72
2022/01/26 19:22:12;;;;;;;12.03;7.67;;;;;;;2.09;88.76;101496.08;1687967;84;20949;-73
2022/01/26 19:25:02;;;;;;;19.90;8.88;;;;;;;2.06;88.78;101471.78;1686410;83;20970;-74
2022/01/26 19:31:46;;;;;;;23.27;10.23;;;;;;;2.07;88.82;101456.94;1694750;83;20931;-74
2022/01/26 19:45:59;;;;;;;18.40;9.85;;;;;;;2.01;88.75;101449.95;1696197;83;20910;-74
2022/01/26 19:51:39;;;;;;;24.30;11.25;;;;;;;2.00;88.77;101436.74;1699920;84;20976;-74
2022/01/26 19:54:21;;;;;;;;;;;;;;;2.01;88.78;101445.27;1700681;83;20951;-74
2022/01/26 19:57:08;;;;;;;27.37;12.10;;;;;;;1.99;88.76;101452.45;1698888;84;20134;-74
2022/01/26 19:59:52;;;;;;;25.12;11.95;;;;;;;2.00;88.76;101455.88;1700465;83;21424;-74
2022/01/26 20:02:37;;;;;;;26.93;12.47;;;;;;;1.99;88.74;101455.01;1699408;83;20978;-72
2022/01/26 20:05:21;;;;;;;24.00;10.32;;;;;;;1.99;88.75;101451.18;1699721;83;21038;-72